createdAt,value
2023-05-02T00:02:41.267Z,14.31
2023-05-02T00:05:09.119Z,14.34
2023-05-02T00:07:36.624Z,14.32
2023-05-02T00:10:04.366Z,14.31
2023-05-02T00:12:32.075Z,14.29
2023-05-02T00:14:59.439Z,14.29
2023-05-02T00:17:27.018Z,14.30
2023-05-02T00:19:54.402Z,14.28
2023-05-02T00:22:22.088Z,14.27
2023-05-02T00:24:49.462Z,14.22
2023-05-02T00:27:16.745Z,14.24
2023-05-02T00:29:44.012Z,14.23
2023-05-02T00:32:11.347Z,14.14
2023-05-02T00:34:38.917Z,14.16
2023-05-02T00:37:06.601Z,14.15
2023-05-02T00:39:37.086Z,14.11
2023-05-02T00:42:04.646Z,14.07
2023-05-02T00:44:32.894Z,14.05
2023-05-02T00:47:02.214Z,14.11
2023-05-02T00:49:29.676Z,14.09
2023-05-02T00:51:57.322Z,14.06
2023-05-02T00:54:24.860Z,13.99
2023-05-02T00:56:52.672Z,13.98
2023-05-02T00:59:20.706Z,14.00
2023-05-02T01:01:51.721Z,13.98
2023-05-02T01:04:37.808Z,14.02
2023-05-02T01:07:36.130Z,13.98
2023-05-02T01:10:06.489Z,13.97
2023-05-02T01:12:47.321Z,13.85
2023-05-02T01:15:21.161Z,13.83
2023-05-02T01:17:50.523Z,13.83
2023-05-02T01:20:21.338Z,13.83
2023-05-02T01:22:50.009Z,13.79
2023-05-02T01:25:17.276Z,13.78
2023-05-02T01:28:00.829Z,13.75
2023-05-02T01:30:31.233Z,13.68
2023-05-02T01:33:00.079Z,13.63
2023-05-02T01:35:28.524Z,13.59
2023-05-02T01:37:58.532Z,13.54
2023-05-02T01:40:27.071Z,13.47
2023-05-02T01:42:55.985Z,13.42
2023-05-02T01:45:25.769Z,13.38
2023-05-02T01:47:54.906Z,13.37
2023-05-02T01:50:25.356Z,13.29
2023-05-02T01:52:54.936Z,13.29
2023-05-02T01:55:24.899Z,13.27
2023-05-02T01:57:54.644Z,13.25
2023-05-02T02:00:24.296Z,13.22
2023-05-02T02:02:54.239Z,13.23
2023-05-02T02:05:23.444Z,13.19
2023-05-02T02:07:50.971Z,13.23
2023-05-02T02:10:19.180Z,13.20
2023-05-02T02:12:53.556Z,13.25
2023-05-02T02:15:35.262Z,13.27
2023-05-02T02:18:22.034Z,13.31
2023-05-02T02:20:51.525Z,13.34
2023-05-02T02:23:21.374Z,13.33
2023-05-02T02:25:51.312Z,13.38
2023-05-02T02:28:18.820Z,13.40
2023-05-02T02:30:46.313Z,13.43
2023-05-02T02:33:13.627Z,13.49
2023-05-02T02:35:43.720Z,13.50
2023-05-02T02:38:37.873Z,13.52
2023-05-02T02:41:17.040Z,13.52
2023-05-02T02:43:57.717Z,13.54
2023-05-02T02:46:33.858Z,13.51
2023-05-02T02:49:19.053Z,13.50
2023-05-02T02:51:54.355Z,13.45
2023-05-02T02:54:33.856Z,13.51
2023-05-02T02:57:08.387Z,13.49
2023-05-02T02:59:41.631Z,13.44
2023-05-02T03:02:12.674Z,13.46
2023-05-02T03:04:42.540Z,13.45
2023-05-02T03:07:10.940Z,13.45
2023-05-02T03:09:47.741Z,13.45
2023-05-02T03:12:22.827Z,13.44
2023-05-02T03:14:51.400Z,13.41
2023-05-02T03:17:18.872Z,13.43
2023-05-02T03:19:47.607Z,13.44
2023-05-02T03:22:15.347Z,13.48
2023-05-02T03:24:42.822Z,13.49
2023-05-02T03:27:12.811Z,13.55
2023-05-02T03:29:42.366Z,13.60
2023-05-02T03:32:11.818Z,13.65
2023-05-02T03:34:42.116Z,13.77
2023-05-02T03:37:29.210Z,13.80
2023-05-02T03:40:22.145Z,13.87
2023-05-02T03:42:50.007Z,13.92
2023-05-02T03:45:24.752Z,14.04
2023-05-02T03:47:53.601Z,14.02
2023-05-02T03:50:21.197Z,14.14
2023-05-02T03:52:50.919Z,14.17
2023-05-02T03:55:23.225Z,14.22
2023-05-02T03:57:51.502Z,14.29
2023-05-02T04:00:19.156Z,14.36
2023-05-02T04:02:53.699Z,14.40
2023-05-02T04:05:27.185Z,14.45
2023-05-02T04:07:54.678Z,14.51
2023-05-02T04:10:22.129Z,14.61
2023-05-02T04:12:55.789Z,14.65
2023-05-02T04:15:23.258Z,14.70
2023-05-02T04:17:53.039Z,14.77
2023-05-02T04:20:21.046Z,14.76
2023-05-02T04:22:51.626Z,14.84
2023-05-02T04:25:19.122Z,14.89
2023-05-02T04:27:47.851Z,14.93
2023-05-02T04:30:18.796Z,14.99
2023-05-02T04:32:55.562Z,14.99
2023-05-02T04:35:24.158Z,15.02
2023-05-02T04:37:51.681Z,15.05
2023-05-02T04:40:20.010Z,15.11
2023-05-02T04:42:51.235Z,15.19
2023-05-02T04:45:22.166Z,15.23
2023-05-02T04:47:50.736Z,15.27
2023-05-02T04:50:18.335Z,15.28
2023-05-02T04:52:46.108Z,15.34
2023-05-02T04:55:13.957Z,15.42
2023-05-02T04:57:42.932Z,15.46
2023-05-02T05:00:15.221Z,15.53
2023-05-02T05:02:43.735Z,15.61
2023-05-02T05:05:14.047Z,15.60
2023-05-02T05:07:41.507Z,15.56
2023-05-02T05:10:11.652Z,15.58
2023-05-02T05:13:06.769Z,15.75
2023-05-02T05:15:35.123Z,15.82
2023-05-02T05:18:04.139Z,15.83
2023-05-02T05:20:32.834Z,15.91
2023-05-02T05:23:02.652Z,15.96
2023-05-02T05:25:34.795Z,16.01
2023-05-02T05:28:03.470Z,16.03
2023-05-02T05:30:33.003Z,16.12
2023-05-02T05:33:02.316Z,16.18
2023-05-02T05:35:29.979Z,16.27
2023-05-02T05:37:59.751Z,16.34
2023-05-02T05:40:28.355Z,16.37
2023-05-02T05:42:59.958Z,16.32
2023-05-02T05:45:35.024Z,16.32
2023-05-02T05:48:05.566Z,16.43
2023-05-02T05:50:37.820Z,16.57
2023-05-02T05:53:07.509Z,16.68
2023-05-02T05:55:39.119Z,16.61
2023-05-02T05:58:09.054Z,16.73
2023-05-02T06:00:39.354Z,16.76
2023-05-02T06:03:10.209Z,16.85
2023-05-02T06:05:38.967Z,16.87
2023-05-02T06:08:12.479Z,16.88
2023-05-02T06:10:42.593Z,17.01
2023-05-02T06:13:10.179Z,17.13
2023-05-02T06:16:03.441Z,17.27
2023-05-02T06:18:31.347Z,17.36
2023-05-02T06:21:03.598Z,17.42
2023-05-02T06:23:31.090Z,17.44
2023-05-02T06:26:03.225Z,17.38
2023-05-02T06:28:34.536Z,17.35
2023-05-02T06:31:04.426Z,17.34
2023-05-02T06:33:33.198Z,17.45
2023-05-02T06:36:01.953Z,17.53
2023-05-02T06:38:30.203Z,17.61
2023-05-02T06:40:58.833Z,17.60
2023-05-02T06:43:45.026Z,17.60
2023-05-02T06:46:15.808Z,17.67
2023-05-02T06:49:05.029Z,17.68
2023-05-02T06:51:36.224Z,17.65
2023-05-02T06:54:04.177Z,17.73
2023-05-02T06:56:34.268Z,17.89
2023-05-02T06:59:01.902Z,17.93
2023-05-02T07:01:32.505Z,17.94
2023-05-02T07:04:06.907Z,18.01
2023-05-02T07:06:36.257Z,18.09
2023-05-02T07:09:04.465Z,18.20
2023-05-02T07:14:17.316Z,18.27
2023-05-02T07:16:45.125Z,18.28
2023-05-02T07:19:15.504Z,18.33
2023-05-02T07:21:50.658Z,18.30
2023-05-02T07:24:59.963Z,18.36
2023-05-02T07:27:28.651Z,18.46
2023-05-02T07:29:57.887Z,18.56
2023-05-02T07:32:40.764Z,18.53
2023-05-02T07:35:09.240Z,18.37
2023-05-02T07:37:37.254Z,18.39
2023-05-02T07:40:06.411Z,18.28
2023-05-02T07:42:35.637Z,18.24
2023-05-02T07:45:07.529Z,18.24
2023-05-02T07:47:39.137Z,18.12
2023-05-02T07:50:09.562Z,18.33
2023-05-02T07:52:37.327Z,18.44
2023-05-02T07:55:05.799Z,18.65
2023-05-02T07:57:34.514Z,18.73
2023-05-02T08:00:04.667Z,18.86
2023-05-02T08:02:43.486Z,18.95
2023-05-02T08:05:13.465Z,18.99
2023-05-02T08:07:43.054Z,19.21
2023-05-02T08:10:11.497Z,19.24
2023-05-02T08:12:40.920Z,19.34
2023-05-02T08:15:10.999Z,19.18
2023-05-02T08:17:41.025Z,19.08
2023-05-02T08:20:09.060Z,19.06
2023-05-02T08:22:36.375Z,19.32
2023-05-02T08:25:03.788Z,19.50
2023-05-02T08:28:06.357Z,19.66
2023-05-02T08:30:33.959Z,19.58
2023-05-02T08:33:02.606Z,19.56
2023-05-02T08:35:51.640Z,19.41
2023-05-02T08:38:21.003Z,19.44
2023-05-02T08:40:48.673Z,19.53
2023-05-02T08:43:17.181Z,19.67
2023-05-02T08:45:45.749Z,19.82
2023-05-02T08:48:16.981Z,19.93
2023-05-02T08:50:48.638Z,19.74
2023-05-02T08:53:18.454Z,19.75
2023-05-02T08:55:56.010Z,19.83
2023-05-02T08:58:27.517Z,19.82
2023-05-02T09:00:57.475Z,19.79
2023-05-02T09:03:34.284Z,19.74
2023-05-02T09:06:10.739Z,19.72
2023-05-02T09:08:39.015Z,19.70
2023-05-02T09:11:09.426Z,19.81
2023-05-02T09:13:41.887Z,19.84
2023-05-02T09:16:27.530Z,19.99
2023-05-02T09:18:58.130Z,19.84
2023-05-02T09:21:41.793Z,19.88
2023-05-02T09:24:20.350Z,19.96
2023-05-02T09:27:06.569Z,19.99
2023-05-02T09:29:39.364Z,20.06
2023-05-02T09:32:07.375Z,20.04
2023-05-02T09:34:37.854Z,20.01
2023-05-02T09:37:05.919Z,19.95
2023-05-02T09:39:33.478Z,19.86
2023-05-02T09:42:03.104Z,19.82
2023-05-02T09:44:38.371Z,19.77
2023-05-02T09:47:07.104Z,19.83
2023-05-02T09:49:43.046Z,19.87
2023-05-02T09:52:29.560Z,19.93
2023-05-02T09:54:57.019Z,19.94
2023-05-02T09:57:40.838Z,19.89
2023-05-02T10:00:09.323Z,19.77
2023-05-02T10:02:43.387Z,19.74
2023-05-02T10:05:12.063Z,19.58
2023-05-02T10:07:39.914Z,19.75
2023-05-02T10:10:09.002Z,19.77
2023-05-02T10:12:39.005Z,19.79
2023-05-02T10:15:12.338Z,19.67
2023-05-02T10:17:45.377Z,19.52
2023-05-02T10:20:23.183Z,19.41
2023-05-02T10:22:51.304Z,19.35
2023-05-02T10:25:19.440Z,19.29
2023-05-02T10:27:47.655Z,19.24
2023-05-02T10:30:16.167Z,19.26
2023-05-02T10:32:49.661Z,19.11
2023-05-02T10:35:18.383Z,18.96
2023-05-02T10:38:05.142Z,18.90
2023-05-02T10:40:33.305Z,18.92
2023-05-02T10:43:00.809Z,18.93
2023-05-02T10:45:36.126Z,19.06
2023-05-02T10:48:17.419Z,19.06
2023-05-02T10:51:06.247Z,19.15
2023-05-02T10:53:37.009Z,19.30
2023-05-02T10:56:14.455Z,19.44
2023-05-02T10:58:43.214Z,19.54
2023-05-02T11:01:28.890Z,19.57
2023-05-02T11:04:07.121Z,19.68
2023-05-02T11:06:37.033Z,19.79
2023-05-02T11:09:24.990Z,20.02
2023-05-02T11:11:54.612Z,20.13
2023-05-02T11:14:26.264Z,20.16
2023-05-02T11:17:04.645Z,20.27
2023-05-02T11:19:45.404Z,20.40
2023-05-02T11:22:24.356Z,20.36
2023-05-02T11:24:52.017Z,20.32
2023-05-02T11:27:31.700Z,20.40
2023-05-02T11:30:06.009Z,20.52
2023-05-02T11:32:46.523Z,20.60
2023-05-02T11:35:27.692Z,20.62
2023-05-02T11:37:56.378Z,20.55
2023-05-02T11:40:24.393Z,20.41
2023-05-02T11:42:52.004Z,20.29
2023-05-02T11:45:20.248Z,20.17
2023-05-02T11:47:51.771Z,20.10
2023-05-02T11:50:19.326Z,20.03
2023-05-02T11:52:46.581Z,19.91
2023-05-02T11:55:16.197Z,19.96
2023-05-02T11:57:43.816Z,19.83
2023-05-02T12:00:12.285Z,19.80
2023-05-02T12:02:45.337Z,19.71
2023-05-02T12:05:14.949Z,19.62
2023-05-02T12:07:49.496Z,19.61
2023-05-02T12:10:17.101Z,19.62
2023-05-02T12:12:45.590Z,19.72
2023-05-02T12:15:13.656Z,19.75
2023-05-02T12:17:49.575Z,19.73
2023-05-02T12:20:18.440Z,19.71
2023-05-02T12:22:46.398Z,19.77
2023-05-02T12:25:14.235Z,19.79
2023-05-02T12:27:41.823Z,19.81
2023-05-02T12:30:09.901Z,19.80
2023-05-02T12:32:37.581Z,19.77
2023-05-02T12:35:05.651Z,19.77
2023-05-02T12:37:34.368Z,19.80
2023-05-02T12:40:02.037Z,19.82
2023-05-02T12:42:34.743Z,19.78
2023-05-02T12:45:02.317Z,19.82
2023-05-02T12:47:46.144Z,19.86
2023-05-02T12:50:13.497Z,19.73
2023-05-02T12:52:49.792Z,19.75
2023-05-02T12:55:22.387Z,19.75
2023-05-02T12:57:49.832Z,19.72
2023-05-02T13:00:18.657Z,19.61
2023-05-02T13:02:46.274Z,19.56
2023-05-02T13:05:17.933Z,19.49
2023-05-02T13:08:04.228Z,19.46
2023-05-02T13:10:31.636Z,19.51
2023-05-02T13:12:59.015Z,19.42
2023-05-02T13:15:28.911Z,19.32
2023-05-02T13:17:56.781Z,19.33
2023-05-02T13:20:24.113Z,19.35
2023-05-02T13:22:51.669Z,19.32
2023-05-02T13:25:37.809Z,19.42
2023-05-02T13:28:05.311Z,19.42
2023-05-02T13:30:32.896Z,19.42
2023-05-02T13:33:00.979Z,19.48
2023-05-02T13:35:46.819Z,19.39
2023-05-02T13:38:14.090Z,19.27
2023-05-02T13:40:41.877Z,19.18
2023-05-02T13:43:09.164Z,19.05
2023-05-02T13:45:36.480Z,19.01
2023-05-02T13:48:04.002Z,18.99
2023-05-02T13:50:31.272Z,19.00
2023-05-02T13:52:59.689Z,18.91
2023-05-02T13:55:27.093Z,18.79
2023-05-02T14:00:39.271Z,18.78
2023-05-02T14:03:07.136Z,18.70
2023-05-02T14:05:34.590Z,18.61
2023-05-02T14:08:01.791Z,18.59
2023-05-02T14:10:29.085Z,18.55
2023-05-02T14:13:15.072Z,18.54
2023-05-02T14:15:42.563Z,18.50
2023-05-02T14:18:10.445Z,18.52
2023-05-02T14:20:37.852Z,18.39
2023-05-02T14:23:07.325Z,18.46
2023-05-02T14:25:36.518Z,18.59
2023-05-02T14:28:04.505Z,18.54
2023-05-02T14:30:31.977Z,18.55
2023-05-02T14:32:59.523Z,18.48
2023-05-02T14:35:26.741Z,18.45
2023-05-02T14:37:53.960Z,18.49
2023-05-02T14:40:21.478Z,18.45
2023-05-02T14:42:48.816Z,18.37
2023-05-02T14:45:16.354Z,18.41
2023-05-02T14:47:43.787Z,18.38
2023-05-02T14:50:11.435Z,18.35
2023-05-02T14:52:38.597Z,18.31
2023-05-02T14:55:06.551Z,18.29
2023-05-02T14:57:33.975Z,18.27
2023-05-02T15:00:01.703Z,18.24
2023-05-02T15:02:32.050Z,18.21
2023-05-02T15:04:59.466Z,18.10
2023-05-02T15:07:27.257Z,17.98
2023-05-02T15:12:39.532Z,17.98
2023-05-02T15:15:09.351Z,18.01
2023-05-02T15:17:36.736Z,17.84
2023-05-02T15:20:05.150Z,17.85
2023-05-02T15:22:32.914Z,17.81
2023-05-02T15:25:00.870Z,17.65
2023-05-02T15:27:28.548Z,17.59
2023-05-02T15:29:55.962Z,17.54
2023-05-02T15:32:23.410Z,17.46
2023-05-02T15:34:50.790Z,17.47
2023-05-02T15:37:18.121Z,17.39
2023-05-02T15:39:45.502Z,17.33
2023-05-02T15:42:12.799Z,17.26
2023-05-02T15:44:40.208Z,17.14
2023-05-02T15:47:07.585Z,17.02
2023-05-02T15:49:35.523Z,16.97
2023-05-02T15:52:03.505Z,16.93
2023-05-02T15:54:32.436Z,16.87
2023-05-02T15:56:59.887Z,16.85
2023-05-02T15:59:27.258Z,16.74
2023-05-02T16:01:54.619Z,16.61
2023-05-02T16:04:22.125Z,16.50
2023-05-02T16:06:49.633Z,16.51
2023-05-02T16:09:17.172Z,16.41
2023-05-02T16:11:44.683Z,16.33
2023-05-02T16:14:11.990Z,16.19
2023-05-02T16:16:39.429Z,16.19
2023-05-02T16:19:12.926Z,16.12
2023-05-02T16:21:43.520Z,16.05
2023-05-02T16:24:10.891Z,15.99
2023-05-02T16:26:38.263Z,15.92
2023-05-02T16:29:05.560Z,15.86
2023-05-02T16:31:33.048Z,15.82
2023-05-02T16:34:00.477Z,15.76
2023-05-02T16:36:29.248Z,15.66
2023-05-02T16:38:56.674Z,15.61
2023-05-02T16:41:24.551Z,15.48
2023-05-02T16:43:51.856Z,15.44
2023-05-02T16:46:19.187Z,15.44
2023-05-02T16:48:46.569Z,15.45
2023-05-02T16:51:13.922Z,15.38
2023-05-02T16:53:41.307Z,15.39
2023-05-02T16:56:09.030Z,15.31
2023-05-02T16:58:36.884Z,15.31
2023-05-02T17:01:05.545Z,15.24
2023-05-02T17:03:32.963Z,15.18
2023-05-02T17:06:02.046Z,15.13
2023-05-02T17:08:29.755Z,15.10
2023-05-02T17:10:57.192Z,15.06
2023-05-02T17:13:24.647Z,15.07
2023-05-02T17:15:53.874Z,15.03
2023-05-02T17:18:22.130Z,14.96
2023-05-02T17:20:50.269Z,14.90
2023-05-02T17:23:17.715Z,14.81
2023-05-02T17:25:45.154Z,14.80
2023-05-02T17:28:12.612Z,14.76
2023-05-02T17:30:40.032Z,14.70
2023-05-02T17:33:07.451Z,14.63
2023-05-02T17:35:34.785Z,14.62
2023-05-02T17:38:02.521Z,14.52
2023-05-02T17:40:30.182Z,14.43
2023-05-02T17:42:59.115Z,14.48
2023-05-02T17:45:29.327Z,14.43
2023-05-02T17:47:56.976Z,14.35
2023-05-02T17:50:24.377Z,14.32
2023-05-02T17:52:51.966Z,14.23
2023-05-02T17:55:19.747Z,14.27
2023-05-02T17:57:48.760Z,14.19
2023-05-02T18:00:16.197Z,14.17
2023-05-02T18:02:44.135Z,14.06
2023-05-02T18:05:11.714Z,14.06
2023-05-02T18:07:39.077Z,14.02
2023-05-02T18:10:25.368Z,13.99
2023-05-02T18:12:52.932Z,13.93
2023-05-02T18:15:20.398Z,13.84
2023-05-02T18:17:47.906Z,13.86
2023-05-02T18:20:15.317Z,13.81
2023-05-02T18:22:43.067Z,13.80
2023-05-02T18:25:10.522Z,13.84
2023-05-02T18:27:37.922Z,13.79
2023-05-02T18:30:06.079Z,13.72
2023-05-02T18:32:34.838Z,13.73
2023-05-02T18:35:04.178Z,13.70
2023-05-02T18:37:31.843Z,13.64
2023-05-02T18:39:59.296Z,13.58
2023-05-02T18:42:28.134Z,13.57
2023-05-02T18:44:55.542Z,13.50
2023-05-02T18:47:24.715Z,13.52
2023-05-02T18:49:52.454Z,13.53
2023-05-02T18:52:19.680Z,13.57
2023-05-02T18:54:47.013Z,13.60
2023-05-02T18:57:14.714Z,13.55
2023-05-02T18:59:41.934Z,13.43
2023-05-02T19:02:09.743Z,13.49
2023-05-02T19:04:37.195Z,13.47
2023-05-02T19:07:04.460Z,13.36
2023-05-02T19:09:31.765Z,13.29
2023-05-02T19:11:59.103Z,13.31
2023-05-02T19:14:27.050Z,13.24
2023-05-02T19:16:54.417Z,13.11
2023-05-02T19:19:21.777Z,13.12
2023-05-02T19:21:50.878Z,13.14
2023-05-02T19:24:19.808Z,13.02
2023-05-02T19:26:47.416Z,13.00
2023-05-02T19:29:14.673Z,12.96
2023-05-02T19:31:43.958Z,12.94
2023-05-02T19:34:11.187Z,12.85
2023-05-02T19:36:38.546Z,12.85
2023-05-02T19:39:05.942Z,12.79
2023-05-02T19:41:33.202Z,12.78
2023-05-02T19:44:01.352Z,12.78
2023-05-02T19:46:30.605Z,12.75
2023-05-02T19:48:58.120Z,12.72
2023-05-02T19:51:28.405Z,12.65
2023-05-02T19:53:58.950Z,12.64
2023-05-02T19:56:27.527Z,12.69
2023-05-02T19:58:56.969Z,12.69
2023-05-02T20:01:26.466Z,12.68
2023-05-02T20:03:55.062Z,12.61
2023-05-02T20:06:22.395Z,12.62
2023-05-02T20:08:51.317Z,12.65
2023-05-02T20:11:18.826Z,12.61
2023-05-02T20:13:46.197Z,12.54
2023-05-02T20:16:14.762Z,12.57
2023-05-02T20:18:42.263Z,12.48
2023-05-02T20:21:09.595Z,12.46
2023-05-02T20:23:36.894Z,12.46
2023-05-02T20:26:04.270Z,12.48
2023-05-02T20:28:31.806Z,12.40
2023-05-02T20:30:59.125Z,12.38
2023-05-02T20:33:36.962Z,12.36
2023-05-02T20:36:09.080Z,12.40
2023-05-02T20:38:36.335Z,12.37
2023-05-02T20:41:08.630Z,12.27
2023-05-02T20:43:36.541Z,12.24
2023-05-02T20:46:12.174Z,12.13
2023-05-02T20:48:39.641Z,12.23
2023-05-02T20:51:06.930Z,12.24
2023-05-02T20:53:35.694Z,12.18
2023-05-02T20:56:02.948Z,12.08
2023-05-02T20:58:30.219Z,12.08
2023-05-02T21:00:57.562Z,12.03
2023-05-02T21:03:24.994Z,12.04
2023-05-02T21:05:56.039Z,12.04
2023-05-02T21:08:23.849Z,12.01
2023-05-02T21:10:51.679Z,12.02
2023-05-02T21:16:03.860Z,11.88
2023-05-02T21:18:31.180Z,11.87
2023-05-02T21:20:58.500Z,11.83
2023-05-02T21:23:26.504Z,11.75
2023-05-02T21:25:53.797Z,11.71
2023-05-02T21:28:21.123Z,11.66
2023-05-02T21:30:48.514Z,11.66
2023-05-02T21:33:17.829Z,11.59
2023-05-02T21:35:45.212Z,11.62
2023-05-02T21:38:12.907Z,11.51
2023-05-02T21:40:40.189Z,11.51
2023-05-02T21:43:07.507Z,11.51
2023-05-02T21:45:35.053Z,11.47
2023-05-02T21:48:02.418Z,11.39
2023-05-02T21:50:29.905Z,11.37
2023-05-02T21:52:57.170Z,11.32
2023-05-02T21:58:10.918Z,11.29
2023-05-02T22:00:39.386Z,11.17
2023-05-02T22:03:08.703Z,11.19
2023-05-02T22:05:36.281Z,11.08
2023-05-02T22:08:03.645Z,11.09
2023-05-02T22:10:31.164Z,10.99
2023-05-02T22:12:58.595Z,11.07
2023-05-02T22:15:25.879Z,11.03
2023-05-02T22:17:55.300Z,11.02
2023-05-02T22:20:41.257Z,10.92
2023-05-02T22:23:08.990Z,10.99
2023-05-02T22:25:39.487Z,10.97
2023-05-02T22:28:11.728Z,10.90
2023-05-02T22:30:43.278Z,10.90
2023-05-02T22:33:10.847Z,10.66
2023-05-02T22:35:39.076Z,10.73
2023-05-02T22:38:06.868Z,10.72
2023-05-02T22:40:34.113Z,10.73
2023-05-02T22:43:01.699Z,10.65
2023-05-02T22:45:49.424Z,10.60
2023-05-02T22:48:16.871Z,10.60
2023-05-02T22:50:48.017Z,10.60
2023-05-02T22:53:15.369Z,10.62
2023-05-02T22:55:42.831Z,10.63
2023-05-02T22:58:10.106Z,10.57
2023-05-02T23:00:37.417Z,10.56
2023-05-02T23:03:05.144Z,10.55
2023-05-02T23:05:32.467Z,10.49
2023-05-02T23:07:59.756Z,10.51
2023-05-02T23:10:27.108Z,10.43
2023-05-02T23:12:54.417Z,10.38
2023-05-02T23:15:21.660Z,10.37
2023-05-02T23:17:49.384Z,10.31
2023-05-02T23:20:19.755Z,10.25
2023-05-02T23:22:47.232Z,10.36
2023-05-02T23:25:15.647Z,10.35
2023-05-02T23:27:43.240Z,10.34
2023-05-02T23:30:11.951Z,10.33
2023-05-02T23:32:39.723Z,10.30
2023-05-02T23:37:53.064Z,10.18
2023-05-02T23:40:20.977Z,10.02
2023-05-02T23:42:48.694Z,10.03
2023-05-02T23:45:16.341Z,9.99
2023-05-02T23:47:43.678Z,9.95
2023-05-02T23:50:11.223Z,9.90
2023-05-02T23:52:38.504Z,9.96
2023-05-02T23:55:10.883Z,9.90
2023-05-02T23:57:38.619Z,9.94
